createdAt,value
2019-04-30T00:01:37.642Z,69.80
2019-04-30T00:04:15.743Z,69.80
2019-04-30T00:06:46.500Z,69.70
2019-04-30T00:09:19.274Z,69.70
2019-04-30T00:11:50.540Z,69.50
2019-04-30T00:14:22.988Z,69.20
2019-04-30T00:16:55.097Z,68.90
2019-04-30T00:19:28.538Z,68.60
2019-04-30T00:22:00.468Z,68.40
2019-04-30T00:24:35.500Z,68.40
2019-04-30T00:27:06.297Z,68.20
2019-04-30T00:29:36.609Z,68.10
2019-04-30T00:32:07.930Z,67.70
2019-04-30T00:34:39.482Z,67.60
2019-04-30T00:37:14.279Z,67.60
2019-04-30T00:39:51.183Z,67.40
2019-04-30T00:42:24.391Z,67.20
2019-04-30T00:44:59.331Z,67.00
2019-04-30T00:47:27.424Z,67.00
2019-04-30T00:50:00.268Z,66.90
2019-04-30T00:52:33.991Z,66.80
2019-04-30T00:55:05.562Z,66.80
2019-04-30T00:57:38.850Z,66.80
2019-04-30T01:00:10.788Z,66.90
2019-04-30T01:03:00.798Z,67.00
2019-04-30T01:05:35.351Z,67.00
2019-04-30T01:08:07.089Z,67.20
2019-04-30T01:10:37.647Z,67.30
2019-04-30T01:13:11.805Z,67.30
2019-04-30T01:15:43.945Z,67.20
2019-04-30T01:18:12.472Z,67.10
2019-04-30T01:20:44.998Z,67.10
2019-04-30T01:23:19.389Z,67.00
2019-04-30T01:25:51.401Z,67.00
2019-04-30T01:28:24.472Z,67.10
2019-04-30T01:30:58.745Z,66.80
2019-04-30T01:33:28.476Z,66.70
2019-04-30T01:35:59.704Z,66.60
2019-04-30T01:38:30.567Z,66.50
2019-04-30T01:41:00.934Z,66.50
2019-04-30T01:43:34.739Z,66.70
2019-04-30T01:46:09.378Z,66.90
2019-04-30T01:48:39.189Z,66.90
2019-04-30T01:51:09.227Z,66.90
2019-04-30T01:53:43.597Z,66.90
2019-04-30T01:56:21.848Z,67.10
2019-04-30T01:58:56.151Z,67.10
2019-04-30T02:01:30.960Z,67.00
2019-04-30T02:04:02.432Z,67.00
2019-04-30T02:06:34.618Z,67.00
2019-04-30T02:09:06.139Z,66.90
2019-04-30T02:11:38.733Z,66.90
2019-04-30T02:14:09.077Z,66.80
2019-04-30T02:16:39.671Z,66.80
2019-04-30T02:19:10.348Z,66.80
2019-04-30T02:21:42.303Z,66.80
2019-04-30T02:24:14.349Z,66.70
2019-04-30T02:26:48.528Z,66.70
2019-04-30T02:29:19.201Z,66.60
2019-04-30T02:31:50.419Z,66.40
2019-04-30T02:34:30.971Z,66.30
2019-04-30T02:37:09.717Z,65.90
2019-04-30T02:39:40.529Z,66.00
2019-04-30T02:42:13.669Z,65.90
2019-04-30T02:44:46.211Z,65.90
2019-04-30T02:47:20.278Z,65.60
2019-04-30T02:50:10.259Z,65.60
2019-04-30T02:52:29.412Z,65.60
2019-04-30T02:55:03.797Z,65.50
2019-04-30T02:57:36.829Z,65.40
2019-04-30T03:00:15.333Z,65.30
2019-04-30T03:02:45.684Z,65.30
2019-04-30T03:05:16.026Z,65.30
2019-04-30T03:07:46.781Z,65.90
2019-04-30T03:10:19.692Z,65.00
2019-04-30T03:12:49.968Z,65.70
2019-04-30T03:15:22.836Z,64.80
2019-04-30T03:18:10.003Z,64.80
2019-04-30T03:20:51.312Z,64.80
2019-04-30T03:23:22.076Z,64.60
2019-04-30T03:25:52.593Z,64.40
2019-04-30T03:28:23.321Z,64.30
2019-04-30T03:30:57.986Z,64.20
2019-04-30T03:33:25.860Z,64.10
2019-04-30T03:35:56.480Z,63.90
2019-04-30T03:38:26.746Z,63.90
2019-04-30T03:40:59.977Z,63.70
2019-04-30T03:43:30.159Z,63.70
2019-04-30T03:46:02.823Z,63.70
2019-04-30T03:48:33.596Z,63.60
2019-04-30T03:51:06.482Z,63.50
2019-04-30T03:53:39.715Z,63.50
2019-04-30T03:56:09.471Z,63.60
2019-04-30T03:58:40.507Z,63.60
2019-04-30T04:01:19.455Z,63.70
2019-04-30T04:04:26.698Z,63.60
2019-04-30T04:07:15.337Z,63.60
2019-04-30T04:09:53.596Z,63.40
2019-04-30T04:12:25.057Z,63.40
2019-04-30T04:14:55.647Z,63.60
2019-04-30T04:17:25.853Z,63.60
2019-04-30T04:19:59.564Z,63.50
2019-04-30T04:22:36.178Z,63.50
2019-04-30T04:25:12.728Z,63.50
2019-04-30T04:27:39.540Z,63.40
2019-04-30T04:30:11.952Z,63.20
2019-04-30T04:32:42.358Z,63.80
2019-04-30T04:35:13.204Z,63.20
2019-04-30T04:37:44.075Z,63.20
2019-04-30T04:40:14.741Z,63.20
2019-04-30T04:42:45.407Z,63.20
2019-04-30T04:45:15.728Z,63.20
2019-04-30T04:47:46.045Z,63.20
2019-04-30T04:50:16.547Z,63.00
2019-04-30T04:52:49.466Z,62.90
2019-04-30T04:55:21.836Z,62.70
2019-04-30T04:57:51.518Z,62.50
2019-04-30T05:00:22.842Z,62.40
2019-04-30T05:03:14.291Z,62.80
2019-04-30T05:05:44.697Z,64.50
2019-04-30T05:08:15.252Z,64.70
2019-04-30T05:10:46.331Z,62.00
2019-04-30T05:13:16.709Z,59.90
2019-04-30T05:15:51.245Z,57.90
2019-04-30T05:18:19.251Z,56.30
2019-04-30T05:20:52.303Z,54.50
2019-04-30T05:23:25.771Z,53.10
2019-04-30T05:25:56.165Z,52.10
2019-04-30T05:28:26.814Z,51.20
2019-04-30T05:30:59.231Z,49.90
2019-04-30T05:33:29.339Z,49.20
2019-04-30T05:35:59.779Z,48.20
2019-04-30T05:38:31.874Z,47.60
2019-04-30T05:41:02.461Z,47.40
2019-04-30T05:43:33.228Z,46.60
2019-04-30T05:46:03.988Z,46.20
2019-04-30T05:48:39.590Z,46.10
2019-04-30T05:51:09.549Z,46.20
2019-04-30T05:53:41.727Z,46.40
2019-04-30T05:56:14.027Z,46.90
2019-04-30T05:58:44.738Z,47.30
2019-04-30T06:01:15.832Z,47.00
2019-04-30T06:03:48.318Z,46.70
2019-04-30T06:06:19.383Z,46.90
2019-04-30T06:09:04.635Z,47.00
2019-04-30T06:11:52.811Z,47.40
2019-04-30T06:14:32.179Z,48.70
2019-04-30T06:17:06.112Z,49.40
2019-04-30T06:19:36.739Z,49.80
2019-04-30T06:22:08.654Z,50.30
2019-04-30T06:24:39.648Z,50.70
2019-04-30T06:27:10.994Z,51.40
2019-04-30T06:29:42.249Z,51.80
2019-04-30T06:32:12.597Z,52.10
2019-04-30T06:34:45.136Z,52.40
2019-04-30T06:37:15.529Z,52.60
2019-04-30T06:39:52.033Z,52.80
2019-04-30T06:42:23.088Z,53.20
2019-04-30T06:44:54.092Z,53.40
2019-04-30T06:47:32.785Z,53.70
2019-04-30T06:49:58.753Z,53.70
2019-04-30T06:52:29.524Z,54.00
2019-04-30T06:55:00.028Z,54.30
2019-04-30T06:57:30.366Z,54.50
2019-04-30T07:00:03.023Z,55.20
2019-04-30T07:02:36.617Z,54.70
2019-04-30T07:05:09.954Z,54.80
2019-04-30T07:07:42.532Z,54.90
2019-04-30T07:10:26.627Z,54.70
2019-04-30T07:13:16.003Z,54.80
2019-04-30T07:15:59.003Z,54.90
2019-04-30T07:18:29.280Z,54.80
2019-04-30T07:20:59.633Z,55.00
2019-04-30T07:23:29.923Z,55.10
2019-04-30T07:26:00.298Z,55.00
2019-04-30T07:31:11.782Z,55.50
2019-04-30T07:33:35.105Z,55.60
2019-04-30T07:36:05.693Z,55.80
2019-04-30T07:38:45.749Z,55.60
2019-04-30T07:41:09.585Z,55.60
2019-04-30T07:43:40.217Z,55.90
2019-04-30T07:46:10.601Z,55.60
2019-04-30T07:48:41.013Z,54.80
2019-04-30T07:51:11.925Z,54.60
2019-04-30T07:53:42.945Z,54.70
2019-04-30T07:56:25.578Z,55.10
2019-04-30T07:58:46.660Z,55.00
2019-04-30T08:01:19.575Z,55.00
2019-04-30T08:03:56.393Z,55.00
2019-04-30T08:06:30.652Z,55.00
2019-04-30T08:09:00.854Z,54.80
2019-04-30T08:09:34.156Z,55.30
2019-04-30T08:11:34.429Z,54.60
2019-04-30T08:14:03.954Z,54.60
2019-04-30T08:16:41.769Z,54.50
2019-04-30T08:19:12.379Z,54.50
2019-04-30T08:21:43.175Z,54.50
2019-04-30T08:24:13.562Z,54.30
2019-04-30T08:26:44.007Z,53.90
2019-04-30T08:29:14.277Z,54.00
2019-04-30T08:31:44.772Z,53.90
2019-04-30T08:34:15.110Z,53.70
2019-04-30T08:36:45.421Z,53.80
2019-04-30T08:39:15.732Z,53.70
2019-04-30T08:41:46.035Z,53.70
2019-04-30T08:44:16.380Z,53.60
2019-04-30T08:46:49.075Z,53.70
2019-04-30T08:49:19.605Z,53.30
2019-04-30T08:52:01.216Z,53.20
2019-04-30T08:54:34.591Z,53.00
2019-04-30T08:57:04.453Z,52.90
2019-04-30T08:59:36.035Z,52.80
2019-04-30T09:02:15.355Z,52.70
2019-04-30T09:04:39.041Z,52.80
2019-04-30T09:07:10.628Z,52.60
2019-04-30T09:09:44.389Z,52.50
2019-04-30T09:12:13.276Z,52.50
2019-04-30T09:14:44.168Z,52.40
2019-04-30T09:17:14.885Z,52.30
2019-04-30T09:19:45.509Z,52.30
2019-04-30T09:22:15.838Z,52.10
2019-04-30T09:24:46.313Z,51.90
2019-04-30T09:27:16.637Z,51.40
2019-04-30T09:29:49.504Z,51.40
2019-04-30T09:32:19.902Z,52.00
2019-04-30T09:34:50.249Z,51.20
2019-04-30T09:37:26.059Z,50.80
2019-04-30T09:39:59.109Z,50.50
2019-04-30T09:42:31.640Z,50.20
2019-04-30T09:45:02.311Z,49.30
2019-04-30T09:47:32.566Z,49.30
2019-04-30T09:50:03.183Z,48.90
2019-04-30T09:52:35.914Z,48.60
2019-04-30T09:55:06.316Z,48.40
2019-04-30T09:57:38.894Z,47.80
2019-04-30T10:00:10.331Z,47.20
2019-04-30T10:02:40.616Z,47.10
2019-04-30T10:05:12.765Z,46.90
2019-04-30T10:07:43.809Z,46.40
2019-04-30T10:10:18.845Z,46.10
2019-04-30T10:12:49.381Z,45.70
2019-04-30T10:15:32.586Z,45.20
2019-04-30T10:18:05.248Z,45.00
2019-04-30T10:20:44.177Z,45.00
2019-04-30T10:23:16.256Z,42.40
2019-04-30T10:25:46.583Z,43.80
2019-04-30T10:28:17.015Z,43.00
2019-04-30T10:30:48.495Z,42.60
2019-04-30T10:33:19.608Z,42.10
2019-04-30T10:35:50.973Z,41.90
2019-04-30T10:38:21.626Z,41.90
2019-04-30T10:40:52.087Z,42.10
2019-04-30T10:43:22.813Z,42.30
2019-04-30T10:45:53.146Z,41.70
2019-04-30T10:48:23.447Z,41.00
2019-04-30T10:50:55.105Z,40.80
2019-04-30T10:53:25.773Z,40.40
2019-04-30T10:55:56.386Z,40.20
2019-04-30T10:58:27.072Z,39.90
2019-04-30T11:01:01.982Z,39.90
2019-04-30T11:03:32.475Z,39.30
2019-04-30T11:06:02.836Z,38.90
2019-04-30T11:08:34.500Z,38.30
2019-04-30T11:11:06.617Z,37.80
2019-04-30T11:13:37.184Z,37.30
2019-04-30T11:16:15.168Z,36.90
2019-04-30T11:18:40.109Z,36.30
2019-04-30T11:21:10.952Z,35.90
2019-04-30T11:23:41.746Z,35.70
2019-04-30T11:26:12.903Z,35.40
2019-04-30T11:28:44.192Z,34.50
2019-04-30T11:31:42.202Z,34.30
2019-04-30T11:34:12.719Z,35.00
2019-04-30T11:36:42.996Z,34.00
2019-04-30T11:39:19.588Z,33.00
2019-04-30T11:41:50.671Z,33.00
2019-04-30T11:44:30.295Z,33.20
2019-04-30T11:47:19.440Z,33.30
2019-04-30T11:49:49.917Z,33.40
2019-04-30T11:52:20.466Z,33.20
2019-04-30T11:54:54.275Z,33.30
2019-04-30T11:57:23.759Z,32.90
2019-04-30T11:59:54.071Z,32.80
2019-04-30T12:02:41.679Z,32.80
2019-04-30T12:05:15.169Z,32.60
2019-04-30T12:08:01.596Z,32.60
2019-04-30T12:10:39.239Z,32.80
2019-04-30T12:13:31.340Z,32.70
2019-04-30T12:16:01.967Z,32.90
2019-04-30T12:18:32.333Z,32.40
2019-04-30T12:21:03.021Z,32.10
2019-04-30T12:23:33.387Z,31.50
2019-04-30T12:26:04.275Z,31.60
2019-04-30T12:28:34.938Z,31.40
2019-04-30T12:31:05.959Z,31.60
2019-04-30T12:33:36.508Z,31.50
2019-04-30T12:36:08.869Z,31.50
2019-04-30T12:38:38.991Z,31.50
2019-04-30T12:41:09.217Z,31.60
2019-04-30T12:43:39.655Z,31.90
2019-04-30T12:46:09.975Z,31.80
2019-04-30T12:48:52.310Z,32.00
2019-04-30T12:51:45.841Z,31.90
2019-04-30T12:54:32.917Z,32.00
2019-04-30T12:57:10.928Z,31.90
2019-04-30T12:59:39.524Z,31.90
2019-04-30T13:02:10.538Z,31.80
2019-04-30T13:04:40.925Z,31.30
2019-04-30T13:07:12.316Z,30.90
2019-04-30T13:09:43.769Z,30.70
2019-04-30T13:12:15.394Z,30.00
2019-04-30T13:14:52.392Z,29.70
2019-04-30T13:17:18.432Z,29.60
2019-04-30T13:19:53.398Z,29.70
2019-04-30T13:22:23.844Z,29.80
2019-04-30T13:24:54.791Z,30.20
2019-04-30T13:27:25.620Z,30.10
2019-04-30T13:30:09.317Z,29.90
2019-04-30T13:32:46.065Z,29.90
2019-04-30T13:35:19.272Z,29.60
2019-04-30T13:37:57.577Z,29.80
2019-04-30T13:40:49.010Z,30.20
2019-04-30T13:43:43.112Z,30.50
2019-04-30T13:46:13.308Z,29.90
2019-04-30T13:48:44.365Z,29.90
2019-04-30T13:51:15.647Z,30.00
2019-04-30T13:53:46.330Z,30.10
2019-04-30T13:56:20.002Z,30.10
2019-04-30T13:58:49.150Z,30.10
2019-04-30T14:01:21.430Z,29.90
2019-04-30T14:04:30.148Z,30.00
2019-04-30T14:07:18.574Z,29.70
2019-04-30T14:09:52.343Z,29.60
2019-04-30T14:12:22.846Z,29.50
2019-04-30T14:14:53.200Z,29.20
2019-04-30T14:17:23.681Z,29.40
2019-04-30T14:19:54.398Z,29.30
2019-04-30T14:22:25.258Z,29.20
2019-04-30T14:24:55.862Z,29.30
2019-04-30T14:27:26.550Z,29.40
2019-04-30T14:29:56.856Z,29.20
2019-04-30T14:32:44.764Z,28.90
2019-04-30T14:35:24.291Z,28.70
2019-04-30T14:37:54.600Z,28.70
2019-04-30T14:40:25.336Z,28.70
2019-04-30T14:43:25.037Z,28.80
2019-04-30T14:46:30.000Z,29.00
2019-04-30T14:49:21.819Z,28.80
2019-04-30T14:52:06.488Z,28.30
2019-04-30T14:54:50.534Z,28.20
2019-04-30T14:57:51.389Z,28.10
2019-04-30T15:00:39.315Z,27.90
2019-04-30T15:03:13.425Z,27.90
2019-04-30T15:05:48.783Z,27.50
2019-04-30T15:08:19.907Z,27.10
2019-04-30T15:10:50.404Z,25.80
2019-04-30T15:13:21.807Z,25.40
2019-04-30T15:15:55.323Z,25.30
2019-04-30T15:18:25.810Z,25.50
2019-04-30T15:20:59.400Z,25.20
2019-04-30T15:23:58.576Z,25.20
2019-04-30T15:26:28.603Z,25.70
2019-04-30T15:29:00.002Z,26.20
2019-04-30T15:31:30.735Z,26.30
2019-04-30T15:34:19.506Z,26.40
2019-04-30T15:36:49.921Z,26.50
2019-04-30T15:39:46.770Z,26.70
2019-04-30T15:42:18.893Z,25.80
2019-04-30T15:44:51.006Z,25.80
2019-04-30T15:47:23.048Z,25.70
2019-04-30T15:49:55.071Z,26.00
2019-04-30T15:52:28.846Z,26.70
2019-04-30T15:54:59.335Z,27.40
2019-04-30T15:57:29.719Z,27.80
2019-04-30T16:00:02.136Z,28.00
2019-04-30T16:02:39.194Z,28.30
2019-04-30T16:05:32.082Z,28.40
2019-04-30T16:08:08.937Z,28.40
2019-04-30T16:10:53.262Z,28.40
2019-04-30T16:13:26.766Z,28.20
2019-04-30T16:15:59.081Z,28.10
2019-04-30T16:18:35.884Z,27.90
2019-04-30T16:21:06.243Z,27.70
2019-04-30T16:23:38.534Z,27.70
2019-04-30T16:26:08.765Z,27.00
2019-04-30T16:28:39.115Z,26.60
2019-04-30T16:31:10.014Z,26.50
2019-04-30T16:33:40.368Z,26.50
2019-04-30T16:36:10.998Z,26.40
2019-04-30T16:38:41.303Z,26.30
2019-04-30T16:41:11.736Z,26.40
2019-04-30T16:43:44.123Z,26.40
2019-04-30T16:46:14.328Z,26.30
2019-04-30T16:48:44.983Z,26.30
2019-04-30T16:51:15.351Z,26.30
2019-04-30T16:53:45.681Z,26.60
2019-04-30T16:56:16.331Z,26.80
2019-04-30T16:59:07.247Z,27.00
2019-04-30T17:01:38.267Z,27.10
2019-04-30T17:04:23.835Z,27.30
2019-04-30T17:07:02.824Z,27.60
2019-04-30T17:09:41.917Z,27.80
2019-04-30T17:12:19.623Z,27.90
2019-04-30T17:15:09.249Z,27.90
2019-04-30T17:17:40.989Z,28.00
2019-04-30T17:20:13.104Z,28.00
2019-04-30T17:22:43.843Z,27.80
2019-04-30T17:25:14.116Z,27.80
2019-04-30T17:27:44.454Z,28.00
2019-04-30T17:30:16.323Z,28.10
2019-04-30T17:32:46.633Z,28.20
2019-04-30T17:35:19.047Z,28.30
2019-04-30T17:37:49.796Z,28.20
2019-04-30T17:40:20.137Z,28.20
2019-04-30T17:42:50.503Z,28.30
2019-04-30T17:45:21.765Z,28.40
2019-04-30T17:47:52.226Z,28.50
2019-04-30T17:50:31.065Z,28.50
2019-04-30T17:53:01.718Z,28.60
2019-04-30T17:55:32.118Z,28.70
2019-04-30T17:58:02.822Z,28.90
2019-04-30T18:00:34.741Z,29.10
2019-04-30T18:03:05.644Z,29.10
2019-04-30T18:05:36.334Z,29.30
2019-04-30T18:08:07.029Z,29.30
2019-04-30T18:10:37.846Z,29.40
2019-04-30T18:13:08.595Z,29.50
2019-04-30T18:15:39.193Z,29.60
2019-04-30T18:18:23.812Z,29.60
2019-04-30T18:21:11.372Z,29.70
2019-04-30T18:23:55.363Z,29.80
2019-04-30T18:26:27.612Z,29.90
2019-04-30T18:28:58.270Z,29.90
2019-04-30T18:31:29.813Z,30.00
2019-04-30T18:34:00.348Z,30.00
2019-04-30T18:36:30.951Z,30.10
2019-04-30T18:39:01.471Z,30.20
2019-04-30T18:41:32.244Z,30.20
2019-04-30T18:44:02.627Z,30.20
2019-04-30T18:46:33.406Z,30.80
2019-04-30T18:49:03.986Z,30.70
2019-04-30T18:51:39.425Z,30.90
2019-04-30T18:54:08.348Z,30.90
2019-04-30T18:56:38.984Z,31.00
2019-04-30T18:59:09.461Z,31.30
2019-04-30T19:01:40.657Z,31.60
2019-04-30T19:04:11.136Z,31.70
2019-04-30T19:06:43.351Z,31.90
2019-04-30T19:09:31.493Z,32.00
2019-04-30T19:12:11.202Z,32.20
2019-04-30T19:14:54.135Z,32.30
2019-04-30T19:17:35.390Z,32.70
2019-04-30T19:20:41.904Z,33.00
2019-04-30T19:23:12.507Z,33.10
2019-04-30T19:25:43.307Z,33.40
2019-04-30T19:28:14.762Z,33.60
2019-04-30T19:30:57.393Z,33.90
2019-04-30T19:33:22.939Z,34.20
2019-04-30T19:35:54.703Z,34.50
2019-04-30T19:38:36.262Z,34.50
2019-04-30T19:41:14.286Z,34.80
2019-04-30T19:43:45.058Z,35.10
2019-04-30T19:46:22.143Z,35.40
2019-04-30T19:48:58.561Z,36.10
2019-04-30T19:51:29.687Z,36.50
2019-04-30T19:54:09.098Z,36.90
2019-04-30T19:56:40.625Z,37.20
2019-04-30T19:59:11.601Z,38.00
2019-04-30T20:01:42.262Z,38.60
2019-04-30T20:04:12.659Z,39.20
2019-04-30T20:06:43.067Z,39.10
2019-04-30T20:09:15.065Z,39.10
2019-04-30T20:11:45.420Z,39.60
2019-04-30T20:14:15.759Z,40.00
2019-04-30T20:16:46.034Z,40.40
2019-04-30T20:19:16.707Z,40.50
2019-04-30T20:21:53.084Z,40.80
2019-04-30T20:24:19.105Z,41.20
2019-04-30T20:26:58.279Z,41.30
2019-04-30T20:29:22.985Z,41.60
2019-04-30T20:31:53.254Z,41.90
2019-04-30T20:34:23.636Z,42.10
2019-04-30T20:36:54.347Z,42.40
2019-04-30T20:39:30.838Z,42.50
2019-04-30T20:42:01.241Z,42.70
2019-04-30T20:44:31.514Z,42.90
2019-04-30T20:47:02.151Z,43.20
2019-04-30T20:49:32.408Z,43.60
2019-04-30T20:52:02.764Z,43.90
2019-04-30T20:54:33.206Z,44.20
2019-04-30T20:57:03.533Z,44.40
2019-04-30T20:59:34.210Z,44.70
2019-04-30T21:02:10.383Z,45.10
2019-04-30T21:04:56.915Z,45.40
2019-04-30T21:07:30.599Z,45.40
2019-04-30T21:10:10.176Z,45.80
2019-04-30T21:12:46.929Z,46.20
2019-04-30T21:15:39.624Z,46.40
2019-04-30T21:18:09.539Z,46.50
2019-04-30T21:20:40.118Z,46.80
2019-04-30T21:23:10.482Z,47.10
2019-04-30T21:25:41.221Z,47.30
2019-04-30T21:28:11.651Z,47.70
2019-04-30T21:30:42.034Z,47.80
2019-04-30T21:33:26.477Z,47.80
2019-04-30T21:36:01.022Z,48.00
2019-04-30T21:38:31.422Z,48.10
2019-04-30T21:41:01.771Z,48.50
2019-04-30T21:43:32.149Z,48.70
2019-04-30T21:46:02.497Z,48.60
2019-04-30T21:48:35.995Z,48.50
2019-04-30T21:51:06.417Z,48.40
2019-04-30T21:53:39.368Z,48.30
2019-04-30T21:56:09.384Z,48.20
2019-04-30T21:58:39.965Z,48.20
2019-04-30T22:01:18.341Z,48.10
2019-04-30T22:03:48.767Z,48.20
2019-04-30T22:06:19.563Z,48.20
2019-04-30T22:08:50.158Z,48.30
2019-04-30T22:11:20.571Z,48.40
2019-04-30T22:13:50.983Z,48.50
2019-04-30T22:16:21.352Z,48.50
2019-04-30T22:18:53.520Z,48.70
2019-04-30T22:21:24.115Z,48.90
2019-04-30T22:23:54.653Z,49.20
2019-04-30T22:26:25.095Z,49.40
2019-04-30T22:28:55.520Z,49.80
2019-04-30T22:31:25.777Z,50.10
2019-04-30T22:33:56.164Z,50.40
2019-04-30T22:36:48.921Z,50.90
2019-04-30T22:39:39.534Z,51.10
2019-04-30T22:42:37.123Z,51.40
2019-04-30T22:45:20.719Z,51.80
2019-04-30T22:47:50.986Z,52.30
2019-04-30T22:50:21.426Z,52.60
2019-04-30T22:52:51.704Z,53.30
2019-04-30T22:55:22.042Z,53.80
2019-04-30T22:57:52.600Z,54.40
2019-04-30T23:00:34.035Z,54.70
2019-04-30T23:03:07.818Z,55.20
2019-04-30T23:05:38.136Z,55.60
2019-04-30T23:08:08.488Z,56.10
2019-04-30T23:10:41.634Z,56.60
2019-04-30T23:13:12.122Z,56.90
2019-04-30T23:15:42.800Z,57.30
2019-04-30T23:18:13.141Z,57.70
2019-04-30T23:20:43.497Z,58.20
2019-04-30T23:23:13.835Z,58.60
2019-04-30T23:25:44.091Z,59.00
2019-04-30T23:28:14.443Z,59.40
2019-04-30T23:30:46.736Z,59.80
2019-04-30T23:33:17.088Z,60.00
2019-04-30T23:35:47.332Z,60.20
2019-04-30T23:38:17.854Z,60.50
2019-04-30T23:40:52.809Z,60.90
2019-04-30T23:43:23.217Z,61.20
2019-04-30T23:45:53.519Z,61.40
2019-04-30T23:48:24.096Z,61.50
2019-04-30T23:50:54.799Z,61.70
2019-04-30T23:53:25.504Z,61.90
2019-04-30T23:55:57.123Z,62.20
2019-04-30T23:58:27.482Z,62.60
